sensor_id;sensor_type;location;lat;lon;timestamp;temperature;humidity
14182;DHT22;7171;50.936;6.764;2022-12-16T00:01:10;-2.60;99.90
14182;DHT22;7171;50.936;6.764;2022-12-16T00:03:37;-2.60;99.90
14182;DHT22;7171;50.936;6.764;2022-12-16T00:06:06;-2.70;99.90
14182;DHT22;7171;50.936;6.764;2022-12-16T00:08:34;-2.70;99.90
14182;DHT22;7171;50.936;6.764;2022-12-16T00:11:02;-2.70;99.90
14182;DHT22;7171;50.936;6.764;2022-12-16T00:13:30;-2.80;99.90
14182;DHT22;7171;50.936;6.764;2022-12-16T00:15:57;-2.80;99.90
14182;DHT22;7171;50.936;6.764;2022-12-16T00:18:25;-2.80;99.90
14182;DHT22;7171;50.936;6.764;2022-12-16T00:20:53;-2.80;99.90
14182;DHT22;7171;50.936;6.764;2022-12-16T00:23:20;-2.80;99.90
14182;DHT22;7171;50.936;6.764;2022-12-16T00:25:47;-2.80;99.90
14182;DHT22;7171;50.936;6.764;2022-12-16T00:28:15;-2.90;99.90
14182;DHT22;7171;50.936;6.764;2022-12-16T00:30:43;-2.90;99.90
14182;DHT22;7171;50.936;6.764;2022-12-16T00:33:09;-2.90;99.90
14182;DHT22;7171;50.936;6.764;2022-12-16T00:35:38;-2.90;99.90
14182;DHT22;7171;50.936;6.764;2022-12-16T00:38:05;-2.90;99.90
14182;DHT22;7171;50.936;6.764;2022-12-16T00:40:32;-2.90;99.90
14182;DHT22;7171;50.936;6.764;2022-12-16T00:42:59;-3.00;99.90
14182;DHT22;7171;50.936;6.764;2022-12-16T00:45:26;-3.00;99.90
14182;DHT22;7171;50.936;6.764;2022-12-16T00:47:52;-3.00;99.90
14182;DHT22;7171;50.936;6.764;2022-12-16T00:50:19;-3.10;99.90
14182;DHT22;7171;50.936;6.764;2022-12-16T00:52:48;-3.00;99.90
14182;DHT22;7171;50.936;6.764;2022-12-16T00:55:15;-3.00;99.90
14182;DHT22;7171;50.936;6.764;2022-12-16T00:57:42;-3.10;99.90
14182;DHT22;7171;50.936;6.764;2022-12-16T01:00:11;-3.10;99.90
14182;DHT22;7171;50.936;6.764;2022-12-16T01:02:38;-3.10;99.90
14182;DHT22;7171;50.936;6.764;2022-12-16T01:05:06;-3.10;99.90
14182;DHT22;7171;50.936;6.764;2022-12-16T01:07:33;-3.10;99.90
14182;DHT22;7171;50.936;6.764;2022-12-16T01:10:02;-3.10;99.90
14182;DHT22;7171;50.936;6.764;2022-12-16T01:12:29;-3.20;99.90
14182;DHT22;7171;50.936;6.764;2022-12-16T01:14:56;-3.20;99.90
14182;DHT22;7171;50.936;6.764;2022-12-16T01:17:23;-3.20;99.90
14182;DHT22;7171;50.936;6.764;2022-12-16T01:19:50;-3.20;99.90
14182;DHT22;7171;50.936;6.764;2022-12-16T01:22:17;-3.20;99.90
14182;DHT22;7171;50.936;6.764;2022-12-16T01:24:44;-3.20;99.90
14182;DHT22;7171;50.936;6.764;2022-12-16T01:27:12;-3.20;99.90
14182;DHT22;7171;50.936;6.764;2022-12-16T01:29:40;-3.20;99.90
14182;DHT22;7171;50.936;6.764;2022-12-16T01:32:08;-3.20;99.90
14182;DHT22;7171;50.936;6.764;2022-12-16T01:34:37;-3.20;99.90
14182;DHT22;7171;50.936;6.764;2022-12-16T01:37:04;-3.30;99.90
14182;DHT22;7171;50.936;6.764;2022-12-16T01:39:30;-3.30;99.90
14182;DHT22;7171;50.936;6.764;2022-12-16T01:41:57;-3.30;99.90
14182;DHT22;7171;50.936;6.764;2022-12-16T01:44:25;-3.30;99.90
14182;DHT22;7171;50.936;6.764;2022-12-16T01:46:55;-3.30;99.90
14182;DHT22;7171;50.936;6.764;2022-12-16T01:49:25;-3.30;99.90
14182;DHT22;7171;50.936;6.764;2022-12-16T01:51:55;-3.30;99.90
14182;DHT22;7171;50.936;6.764;2022-12-16T01:54:27;-3.30;99.90
14182;DHT22;7171;50.936;6.764;2022-12-16T01:56:58;-3.30;99.90
14182;DHT22;7171;50.936;6.764;2022-12-16T01:59:29;-3.20;99.90
14182;DHT22;7171;50.936;6.764;2022-12-16T02:01:57;-3.20;99.90
14182;DHT22;7171;50.936;6.764;2022-12-16T02:04:24;-3.20;99.90
14182;DHT22;7171;50.936;6.764;2022-12-16T02:06:51;-3.20;99.90
14182;DHT22;7171;50.936;6.764;2022-12-16T02:09:18;-3.20;99.90
14182;DHT22;7171;50.936;6.764;2022-12-16T02:12:10;-3.20;99.90
14182;DHT22;7171;50.936;6.764;2022-12-16T02:15:07;-3.20;99.90
14182;DHT22;7171;50.936;6.764;2022-12-16T02:17:45;-3.20;99.90
14182;DHT22;7171;50.936;6.764;2022-12-16T02:23:41;-3.20;99.90
14182;DHT22;7171;50.936;6.764;2022-12-16T02:26:22;-3.20;99.90
14182;DHT22;7171;50.936;6.764;2022-12-16T02:29:17;-3.20;99.90
14182;DHT22;7171;50.936;6.764;2022-12-16T02:31:58;-3.30;99.90
14182;DHT22;7171;50.936;6.764;2022-12-16T02:34:33;-3.30;99.90
14182;DHT22;7171;50.936;6.764;2022-12-16T02:37:09;-3.30;99.90
14182;DHT22;7171;50.936;6.764;2022-12-16T02:39:44;-3.30;99.90
14182;DHT22;7171;50.936;6.764;2022-12-16T02:42:17;-3.30;99.90
14182;DHT22;7171;50.936;6.764;2022-12-16T02:44:53;-3.30;99.90
14182;DHT22;7171;50.936;6.764;2022-12-16T02:47:24;-3.30;99.90
14182;DHT22;7171;50.936;6.764;2022-12-16T02:49:51;-3.40;99.90
14182;DHT22;7171;50.936;6.764;2022-12-16T02:52:21;-3.40;99.90
14182;DHT22;7171;50.936;6.764;2022-12-16T02:54:52;-3.40;99.90
14182;DHT22;7171;50.936;6.764;2022-12-16T02:57:33;-3.40;99.90
14182;DHT22;7171;50.936;6.764;2022-12-16T03:00:06;-3.40;99.90
14182;DHT22;7171;50.936;6.764;2022-12-16T03:02:40;-3.40;99.90
14182;DHT22;7171;50.936;6.764;2022-12-16T03:05:15;-3.40;99.90
14182;DHT22;7171;50.936;6.764;2022-12-16T03:07:44;-3.40;99.90
14182;DHT22;7171;50.936;6.764;2022-12-16T03:10:14;-3.40;99.90
14182;DHT22;7171;50.936;6.764;2022-12-16T03:12:43;-3.40;99.90
14182;DHT22;7171;50.936;6.764;2022-12-16T03:15:14;-3.40;99.90
14182;DHT22;7171;50.936;6.764;2022-12-16T03:17:43;-3.40;99.90
14182;DHT22;7171;50.936;6.764;2022-12-16T03:20:15;-3.40;99.90
14182;DHT22;7171;50.936;6.764;2022-12-16T03:22:45;-3.40;99.90
14182;DHT22;7171;50.936;6.764;2022-12-16T03:25:14;-3.40;99.90
14182;DHT22;7171;50.936;6.764;2022-12-16T03:27:45;-3.40;99.90
14182;DHT22;7171;50.936;6.764;2022-12-16T03:30:18;-3.40;99.90
14182;DHT22;7171;50.936;6.764;2022-12-16T03:32:54;-3.40;99.90
14182;DHT22;7171;50.936;6.764;2022-12-16T03:35:29;-3.40;99.90
14182;DHT22;7171;50.936;6.764;2022-12-16T03:37:58;-3.50;99.90
14182;DHT22;7171;50.936;6.764;2022-12-16T03:40:26;-3.50;99.90
14182;DHT22;7171;50.936;6.764;2022-12-16T03:42:54;-3.50;99.90
14182;DHT22;7171;50.936;6.764;2022-12-16T03:45:24;-3.50;99.90
14182;DHT22;7171;50.936;6.764;2022-12-16T03:47:56;-3.50;99.90
14182;DHT22;7171;50.936;6.764;2022-12-16T03:50:26;-3.50;99.90
14182;DHT22;7171;50.936;6.764;2022-12-16T03:52:54;-3.50;99.90
14182;DHT22;7171;50.936;6.764;2022-12-16T03:55:21;-3.50;99.90
14182;DHT22;7171;50.936;6.764;2022-12-16T03:57:48;-3.50;99.90
14182;DHT22;7171;50.936;6.764;2022-12-16T04:00:15;-3.60;99.90
14182;DHT22;7171;50.936;6.764;2022-12-16T04:02:43;-3.60;99.90
14182;DHT22;7171;50.936;6.764;2022-12-16T04:05:11;-3.60;99.90
14182;DHT22;7171;50.936;6.764;2022-12-16T04:07:38;-3.60;99.90
14182;DHT22;7171;50.936;6.764;2022-12-16T04:10:07;-3.60;99.90
14182;DHT22;7171;50.936;6.764;2022-12-16T04:12:34;-3.70;99.90
14182;DHT22;7171;50.936;6.764;2022-12-16T04:15:18;-3.70;99.90
14182;DHT22;7171;50.936;6.764;2022-12-16T04:18:02;-3.80;99.90
14182;DHT22;7171;50.936;6.764;2022-12-16T04:20:51;-3.80;99.90
14182;DHT22;7171;50.936;6.764;2022-12-16T04:23:33;-3.80;99.90
14182;DHT22;7171;50.936;6.764;2022-12-16T04:26:18;-3.80;99.90
14182;DHT22;7171;50.936;6.764;2022-12-16T04:28:45;-3.80;99.90
14182;DHT22;7171;50.936;6.764;2022-12-16T04:31:12;-3.80;99.90
14182;DHT22;7171;50.936;6.764;2022-12-16T04:33:39;-3.70;99.90
14182;DHT22;7171;50.936;6.764;2022-12-16T04:36:25;-3.70;99.90
14182;DHT22;7171;50.936;6.764;2022-12-16T04:39:09;-3.80;99.90
14182;DHT22;7171;50.936;6.764;2022-12-16T04:41:53;-3.80;99.90
14182;DHT22;7171;50.936;6.764;2022-12-16T04:44:38;-3.80;99.90
14182;DHT22;7171;50.936;6.764;2022-12-16T04:47:22;-3.80;99.90
14182;DHT22;7171;50.936;6.764;2022-12-16T04:50:07;-3.80;99.90
14182;DHT22;7171;50.936;6.764;2022-12-16T04:52:53;-3.80;99.90
14182;DHT22;7171;50.936;6.764;2022-12-16T04:55:37;-3.80;99.90
14182;DHT22;7171;50.936;6.764;2022-12-16T04:58:21;-3.80;99.90
14182;DHT22;7171;50.936;6.764;2022-12-16T05:01:05;-3.80;99.90
14182;DHT22;7171;50.936;6.764;2022-12-16T05:03:50;-3.80;99.90
14182;DHT22;7171;50.936;6.764;2022-12-16T05:06:34;-3.80;99.90
14182;DHT22;7171;50.936;6.764;2022-12-16T05:09:20;-3.80;99.90
14182;DHT22;7171;50.936;6.764;2022-12-16T05:12:04;-3.70;99.90
14182;DHT22;7171;50.936;6.764;2022-12-16T05:14:57;-3.80;99.90
14182;DHT22;7171;50.936;6.764;2022-12-16T05:17:41;-3.70;99.90
14182;DHT22;7171;50.936;6.764;2022-12-16T05:20:25;-3.80;99.90
14182;DHT22;7171;50.936;6.764;2022-12-16T05:23:09;-3.80;99.90
14182;DHT22;7171;50.936;6.764;2022-12-16T05:25:55;-3.80;99.90
14182;DHT22;7171;50.936;6.764;2022-12-16T05:28:39;-3.80;99.90
14182;DHT22;7171;50.936;6.764;2022-12-16T05:31:23;-3.90;99.90
14182;DHT22;7171;50.936;6.764;2022-12-16T05:34:07;-3.90;99.90
14182;DHT22;7171;50.936;6.764;2022-12-16T05:36:52;-3.90;99.90
14182;DHT22;7171;50.936;6.764;2022-12-16T05:39:36;-3.90;99.90
14182;DHT22;7171;50.936;6.764;2022-12-16T05:42:21;-3.90;99.90
14182;DHT22;7171;50.936;6.764;2022-12-16T05:45:06;-3.90;99.90
14182;DHT22;7171;50.936;6.764;2022-12-16T05:47:50;-3.90;99.90
14182;DHT22;7171;50.936;6.764;2022-12-16T05:50:34;-3.90;99.90
14182;DHT22;7171;50.936;6.764;2022-12-16T05:53:18;-4.00;99.90
14182;DHT22;7171;50.936;6.764;2022-12-16T05:56:03;-4.00;99.90
14182;DHT22;7171;50.936;6.764;2022-12-16T05:58:48;-4.00;99.90
14182;DHT22;7171;50.936;6.764;2022-12-16T06:01:33;-4.00;99.90
14182;DHT22;7171;50.936;6.764;2022-12-16T06:04:32;-4.00;99.90
14182;DHT22;7171;50.936;6.764;2022-12-16T06:07:17;-4.00;99.90
14182;DHT22;7171;50.936;6.764;2022-12-16T06:10:01;-4.00;99.90
14182;DHT22;7171;50.936;6.764;2022-12-16T06:12:46;-4.00;99.90
14182;DHT22;7171;50.936;6.764;2022-12-16T06:15:32;-3.90;99.90
14182;DHT22;7171;50.936;6.764;2022-12-16T06:18:16;-4.00;99.90
14182;DHT22;7171;50.936;6.764;2022-12-16T06:21:00;-4.00;99.90
14182;DHT22;7171;50.936;6.764;2022-12-16T06:23:46;-3.90;99.90
14182;DHT22;7171;50.936;6.764;2022-12-16T06:26:31;-3.90;99.90
14182;DHT22;7171;50.936;6.764;2022-12-16T06:29:15;-3.90;99.90
14182;DHT22;7171;50.936;6.764;2022-12-16T06:32:09;-3.90;99.90
14182;DHT22;7171;50.936;6.764;2022-12-16T06:34:49;-3.90;99.90
14182;DHT22;7171;50.936;6.764;2022-12-16T06:37:34;-3.90;99.90
14182;DHT22;7171;50.936;6.764;2022-12-16T06:40:18;-3.90;99.90
14182;DHT22;7171;50.936;6.764;2022-12-16T06:43:02;-3.80;99.90
14182;DHT22;7171;50.936;6.764;2022-12-16T06:45:46;-3.80;99.90
14182;DHT22;7171;50.936;6.764;2022-12-16T06:48:32;-3.90;99.90
14182;DHT22;7171;50.936;6.764;2022-12-16T06:51:16;-3.90;99.90
14182;DHT22;7171;50.936;6.764;2022-12-16T06:54:00;-3.90;99.90
14182;DHT22;7171;50.936;6.764;2022-12-16T06:56:44;-4.00;99.90
14182;DHT22;7171;50.936;6.764;2022-12-16T06:59:28;-4.00;99.90
14182;DHT22;7171;50.936;6.764;2022-12-16T07:02:12;-4.10;99.90
14182;DHT22;7171;50.936;6.764;2022-12-16T07:04:58;-4.10;99.90
14182;DHT22;7171;50.936;6.764;2022-12-16T07:07:47;-4.10;99.90
14182;DHT22;7171;50.936;6.764;2022-12-16T07:10:31;-4.10;99.90
14182;DHT22;7171;50.936;6.764;2022-12-16T07:13:16;-4.10;99.90
14182;DHT22;7171;50.936;6.764;2022-12-16T07:15:59;-4.20;99.90
14182;DHT22;7171;50.936;6.764;2022-12-16T07:18:44;-4.10;99.90
14182;DHT22;7171;50.936;6.764;2022-12-16T07:21:29;-4.20;99.90
14182;DHT22;7171;50.936;6.764;2022-12-16T07:24:13;-4.10;99.90
14182;DHT22;7171;50.936;6.764;2022-12-16T07:26:57;-4.10;99.90
14182;DHT22;7171;50.936;6.764;2022-12-16T07:29:41;-4.10;99.90
14182;DHT22;7171;50.936;6.764;2022-12-16T07:32:26;-4.10;99.90
14182;DHT22;7171;50.936;6.764;2022-12-16T07:35:10;-4.10;99.90
14182;DHT22;7171;50.936;6.764;2022-12-16T07:37:55;-4.10;99.90
14182;DHT22;7171;50.936;6.764;2022-12-16T07:40:39;-4.00;99.90
14182;DHT22;7171;50.936;6.764;2022-12-16T07:43:24;-4.00;99.90
14182;DHT22;7171;50.936;6.764;2022-12-16T07:46:08;-4.00;99.90
14182;DHT22;7171;50.936;6.764;2022-12-16T07:48:52;-4.00;99.90
14182;DHT22;7171;50.936;6.764;2022-12-16T07:51:36;-4.00;99.90
14182;DHT22;7171;50.936;6.764;2022-12-16T07:54:24;-3.90;99.90
14182;DHT22;7171;50.936;6.764;2022-12-16T07:57:08;-4.00;99.90
14182;DHT22;7171;50.936;6.764;2022-12-16T07:59:52;-3.90;99.90
14182;DHT22;7171;50.936;6.764;2022-12-16T08:02:36;-3.90;99.90
14182;DHT22;7171;50.936;6.764;2022-12-16T08:05:20;-3.90;99.90
14182;DHT22;7171;50.936;6.764;2022-12-16T08:08:13;-3.90;99.90
14182;DHT22;7171;50.936;6.764;2022-12-16T08:10:59;-3.90;99.90
14182;DHT22;7171;50.936;6.764;2022-12-16T08:13:48;-3.90;99.90
14182;DHT22;7171;50.936;6.764;2022-12-16T08:16:32;-3.90;99.90
14182;DHT22;7171;50.936;6.764;2022-12-16T08:19:16;-3.90;99.90
14182;DHT22;7171;50.936;6.764;2022-12-16T08:22:01;-3.90;99.90
14182;DHT22;7171;50.936;6.764;2022-12-16T08:24:45;-3.80;99.90
14182;DHT22;7171;50.936;6.764;2022-12-16T08:27:30;-3.80;99.90
14182;DHT22;7171;50.936;6.764;2022-12-16T08:30:14;-3.80;99.90
14182;DHT22;7171;50.936;6.764;2022-12-16T08:32:59;-3.70;99.90
14182;DHT22;7171;50.936;6.764;2022-12-16T08:35:43;-3.70;99.90
14182;DHT22;7171;50.936;6.764;2022-12-16T08:38:27;-3.60;99.90
14182;DHT22;7171;50.936;6.764;2022-12-16T08:41:11;-3.60;99.90
14182;DHT22;7171;50.936;6.764;2022-12-16T08:43:56;-3.50;99.90
14182;DHT22;7171;50.936;6.764;2022-12-16T08:46:41;-3.50;99.90
14182;DHT22;7171;50.936;6.764;2022-12-16T08:49:25;-3.50;99.90
14182;DHT22;7171;50.936;6.764;2022-12-16T08:52:09;-3.40;99.90
14182;DHT22;7171;50.936;6.764;2022-12-16T08:54:53;-3.40;99.90
14182;DHT22;7171;50.936;6.764;2022-12-16T08:57:37;-3.30;99.90
14182;DHT22;7171;50.936;6.764;2022-12-16T09:00:22;-3.30;99.90
14182;DHT22;7171;50.936;6.764;2022-12-16T09:03:07;-3.30;99.90
14182;DHT22;7171;50.936;6.764;2022-12-16T09:05:51;-3.20;99.90
14182;DHT22;7171;50.936;6.764;2022-12-16T09:08:40;-3.20;99.90
14182;DHT22;7171;50.936;6.764;2022-12-16T09:11:24;-3.20;99.90
14182;DHT22;7171;50.936;6.764;2022-12-16T09:14:08;-3.10;99.90
14182;DHT22;7171;50.936;6.764;2022-12-16T09:16:54;-3.10;99.90
14182;DHT22;7171;50.936;6.764;2022-12-16T09:19:38;-3.10;99.90
14182;DHT22;7171;50.936;6.764;2022-12-16T09:22:22;-3.00;99.90
14182;DHT22;7171;50.936;6.764;2022-12-16T09:25:06;-2.90;99.90
14182;DHT22;7171;50.936;6.764;2022-12-16T09:27:50;-2.90;99.90
14182;DHT22;7171;50.936;6.764;2022-12-16T09:30:35;-2.90;99.90
14182;DHT22;7171;50.936;6.764;2022-12-16T09:33:20;-2.80;99.90
14182;DHT22;7171;50.936;6.764;2022-12-16T09:36:05;-2.80;99.90
14182;DHT22;7171;50.936;6.764;2022-12-16T09:38:49;-2.70;99.90
14182;DHT22;7171;50.936;6.764;2022-12-16T09:41:41;-2.60;99.90
14182;DHT22;7171;50.936;6.764;2022-12-16T09:44:38;-2.50;99.90
14182;DHT22;7171;50.936;6.764;2022-12-16T09:47:29;-2.50;99.90
14182;DHT22;7171;50.936;6.764;2022-12-16T09:50:22;-2.40;99.90
14182;DHT22;7171;50.936;6.764;2022-12-16T09:53:11;-2.40;99.90
14182;DHT22;7171;50.936;6.764;2022-12-16T09:55:56;-2.30;99.90
14182;DHT22;7171;50.936;6.764;2022-12-16T09:58:44;-2.30;99.90
14182;DHT22;7171;50.936;6.764;2022-12-16T10:01:34;-2.20;99.90
14182;DHT22;7171;50.936;6.764;2022-12-16T10:04:19;-2.20;99.90
14182;DHT22;7171;50.936;6.764;2022-12-16T10:07:08;-2.10;99.90
14182;DHT22;7171;50.936;6.764;2022-12-16T10:10:01;-2.10;99.90
14182;DHT22;7171;50.936;6.764;2022-12-16T10:12:52;-2.00;99.90
14182;DHT22;7171;50.936;6.764;2022-12-16T10:15:44;-2.00;99.90
14182;DHT22;7171;50.936;6.764;2022-12-16T10:18:40;-2.00;99.90
14182;DHT22;7171;50.936;6.764;2022-12-16T10:21:32;-1.90;99.90
14182;DHT22;7171;50.936;6.764;2022-12-16T10:24:25;-1.80;99.90
14182;DHT22;7171;50.936;6.764;2022-12-16T10:27:16;-1.80;99.90
14182;DHT22;7171;50.936;6.764;2022-12-16T10:30:13;-1.70;99.90
14182;DHT22;7171;50.936;6.764;2022-12-16T10:32:59;-1.60;99.90
14182;DHT22;7171;50.936;6.764;2022-12-16T10:35:46;-1.60;99.90
14182;DHT22;7171;50.936;6.764;2022-12-16T10:38:37;-1.50;99.90
14182;DHT22;7171;50.936;6.764;2022-12-16T10:41:27;-1.50;99.90
14182;DHT22;7171;50.936;6.764;2022-12-16T10:44:20;-1.40;99.90
14182;DHT22;7171;50.936;6.764;2022-12-16T10:47:05;-1.40;99.90
14182;DHT22;7171;50.936;6.764;2022-12-16T10:49:55;-1.30;99.90
14182;DHT22;7171;50.936;6.764;2022-12-16T10:52:49;-1.20;99.90
14182;DHT22;7171;50.936;6.764;2022-12-16T10:55:50;-1.10;99.90
14182;DHT22;7171;50.936;6.764;2022-12-16T10:58:42;-1.00;99.90
14182;DHT22;7171;50.936;6.764;2022-12-16T11:01:28;-1.00;99.90
14182;DHT22;7171;50.936;6.764;2022-12-16T11:04:29;-0.90;99.90
14182;DHT22;7171;50.936;6.764;2022-12-16T11:07:26;-0.90;99.90
14182;DHT22;7171;50.936;6.764;2022-12-16T11:10:31;-0.80;99.90
14182;DHT22;7171;50.936;6.764;2022-12-16T11:13:19;-0.70;99.90
14182;DHT22;7171;50.936;6.764;2022-12-16T11:16:11;-0.60;99.90
14182;DHT22;7171;50.936;6.764;2022-12-16T11:18:55;-0.60;99.90
14182;DHT22;7171;50.936;6.764;2022-12-16T11:21:40;-0.60;99.90
14182;DHT22;7171;50.936;6.764;2022-12-16T11:24:24;-0.50;99.90
14182;DHT22;7171;50.936;6.764;2022-12-16T11:27:14;-0.50;99.90
14182;DHT22;7171;50.936;6.764;2022-12-16T11:30:00;-0.40;99.90
14182;DHT22;7171;50.936;6.764;2022-12-16T11:32:48;-0.40;99.90
14182;DHT22;7171;50.936;6.764;2022-12-16T11:35:36;-0.40;99.90
14182;DHT22;7171;50.936;6.764;2022-12-16T11:38:30;-0.40;99.90
14182;DHT22;7171;50.936;6.764;2022-12-16T11:41:24;-0.40;99.90
14182;DHT22;7171;50.936;6.764;2022-12-16T11:44:17;-0.30;99.90
14182;DHT22;7171;50.936;6.764;2022-12-16T11:47:04;-0.30;99.90
14182;DHT22;7171;50.936;6.764;2022-12-16T11:49:57;-0.20;99.90
14182;DHT22;7171;50.936;6.764;2022-12-16T11:52:43;-0.20;99.90
14182;DHT22;7171;50.936;6.764;2022-12-16T11:55:32;-0.10;99.90
14182;DHT22;7171;50.936;6.764;2022-12-16T11:58:22;-0.10;99.90
14182;DHT22;7171;50.936;6.764;2022-12-16T12:01:13;0.00;99.90
14182;DHT22;7171;50.936;6.764;2022-12-16T12:03:58;0.00;99.90
14182;DHT22;7171;50.936;6.764;2022-12-16T12:07:01;0.10;99.90
14182;DHT22;7171;50.936;6.764;2022-12-16T12:09:53;0.10;99.90
14182;DHT22;7171;50.936;6.764;2022-12-16T12:12:46;0.10;99.90
14182;DHT22;7171;50.936;6.764;2022-12-16T12:15:37;0.20;99.90
14182;DHT22;7171;50.936;6.764;2022-12-16T12:18:34;0.20;99.90
14182;DHT22;7171;50.936;6.764;2022-12-16T12:21:24;0.20;99.90
14182;DHT22;7171;50.936;6.764;2022-12-16T12:24:19;0.30;99.90
14182;DHT22;7171;50.936;6.764;2022-12-16T12:27:12;0.30;99.90
14182;DHT22;7171;50.936;6.764;2022-12-16T12:30:02;0.30;99.90
14182;DHT22;7171;50.936;6.764;2022-12-16T12:32:56;0.30;99.90
14182;DHT22;7171;50.936;6.764;2022-12-16T12:35:52;0.30;99.90
14182;DHT22;7171;50.936;6.764;2022-12-16T12:38:46;0.30;99.90
14182;DHT22;7171;50.936;6.764;2022-12-16T12:42:10;0.30;99.90
14182;DHT22;7171;50.936;6.764;2022-12-16T12:45:14;0.30;99.90
14182;DHT22;7171;50.936;6.764;2022-12-16T12:48:09;0.30;99.90
14182;DHT22;7171;50.936;6.764;2022-12-16T12:51:01;0.30;99.90
14182;DHT22;7171;50.936;6.764;2022-12-16T12:53:54;0.30;99.90
14182;DHT22;7171;50.936;6.764;2022-12-16T12:56:47;0.40;99.90
14182;DHT22;7171;50.936;6.764;2022-12-16T12:59:41;0.40;99.90
14182;DHT22;7171;50.936;6.764;2022-12-16T13:02:29;0.40;99.90
14182;DHT22;7171;50.936;6.764;2022-12-16T13:05:18;0.40;99.90
14182;DHT22;7171;50.936;6.764;2022-12-16T13:11:29;0.50;99.90
14182;DHT22;7171;50.936;6.764;2022-12-16T13:14:53;0.50;99.90
14182;DHT22;7171;50.936;6.764;2022-12-16T13:20:57;0.50;99.90
14182;DHT22;7171;50.936;6.764;2022-12-16T13:23:43;0.50;99.90
14182;DHT22;7171;50.936;6.764;2022-12-16T13:26:30;0.40;99.90
14182;DHT22;7171;50.936;6.764;2022-12-16T13:29:28;0.40;99.90
14182;DHT22;7171;50.936;6.764;2022-12-16T13:32:17;0.30;99.90
14182;DHT22;7171;50.936;6.764;2022-12-16T13:35:04;0.30;99.90
14182;DHT22;7171;50.936;6.764;2022-12-16T13:37:53;0.30;99.90
14182;DHT22;7171;50.936;6.764;2022-12-16T13:40:48;0.30;99.90
14182;DHT22;7171;50.936;6.764;2022-12-16T13:43:48;0.40;99.90
14182;DHT22;7171;50.936;6.764;2022-12-16T13:46:42;0.30;99.90
14182;DHT22;7171;50.936;6.764;2022-12-16T13:49:44;0.30;99.90
14182;DHT22;7171;50.936;6.764;2022-12-16T13:52:37;0.20;99.90
14182;DHT22;7171;50.936;6.764;2022-12-16T13:55:26;0.20;99.90
14182;DHT22;7171;50.936;6.764;2022-12-16T13:58:20;0.20;99.90
14182;DHT22;7171;50.936;6.764;2022-12-16T14:01:10;0.20;99.90
14182;DHT22;7171;50.936;6.764;2022-12-16T14:03:58;0.20;99.90
14182;DHT22;7171;50.936;6.764;2022-12-16T14:06:45;0.30;99.90
14182;DHT22;7171;50.936;6.764;2022-12-16T14:09:34;0.30;99.90
14182;DHT22;7171;50.936;6.764;2022-12-16T14:15:53;0.30;99.90
14182;DHT22;7171;50.936;6.764;2022-12-16T14:18:46;0.30;99.90
14182;DHT22;7171;50.936;6.764;2022-12-16T14:21:40;0.30;99.90
14182;DHT22;7171;50.936;6.764;2022-12-16T14:24:27;0.30;99.90
14182;DHT22;7171;50.936;6.764;2022-12-16T14:27:14;0.30;99.90
14182;DHT22;7171;50.936;6.764;2022-12-16T14:30:00;0.40;99.90
14182;DHT22;7171;50.936;6.764;2022-12-16T14:32:45;0.40;99.90
14182;DHT22;7171;50.936;6.764;2022-12-16T14:35:29;0.40;99.90
14182;DHT22;7171;50.936;6.764;2022-12-16T14:38:23;0.50;99.90
14182;DHT22;7171;50.936;6.764;2022-12-16T14:41:12;0.50;99.90
14182;DHT22;7171;50.936;6.764;2022-12-16T14:43:57;0.50;99.90
14182;DHT22;7171;50.936;6.764;2022-12-16T14:46:41;0.60;99.90
14182;DHT22;7171;50.936;6.764;2022-12-16T14:49:27;0.60;99.90
14182;DHT22;7171;50.936;6.764;2022-12-16T14:52:16;0.60;99.90
14182;DHT22;7171;50.936;6.764;2022-12-16T14:55:10;0.60;99.90
14182;DHT22;7171;50.936;6.764;2022-12-16T14:58:09;0.60;99.90
14182;DHT22;7171;50.936;6.764;2022-12-16T15:00:57;0.60;99.90
14182;DHT22;7171;50.936;6.764;2022-12-16T15:03:45;0.60;99.90
14182;DHT22;7171;50.936;6.764;2022-12-16T15:06:35;0.50;99.90
14182;DHT22;7171;50.936;6.764;2022-12-16T15:09:25;0.50;99.90
14182;DHT22;7171;50.936;6.764;2022-12-16T15:12:11;0.50;99.90
14182;DHT22;7171;50.936;6.764;2022-12-16T15:14:57;0.40;99.90
14182;DHT22;7171;50.936;6.764;2022-12-16T15:17:48;0.40;99.90
14182;DHT22;7171;50.936;6.764;2022-12-16T15:20:36;0.30;99.90
14182;DHT22;7171;50.936;6.764;2022-12-16T15:23:23;0.30;99.90
14182;DHT22;7171;50.936;6.764;2022-12-16T15:26:09;0.30;99.90
14182;DHT22;7171;50.936;6.764;2022-12-16T15:28:59;0.30;99.90
14182;DHT22;7171;50.936;6.764;2022-12-16T15:31:44;0.20;99.90
14182;DHT22;7171;50.936;6.764;2022-12-16T15:34:31;0.20;99.90
14182;DHT22;7171;50.936;6.764;2022-12-16T15:37:19;0.10;99.90
14182;DHT22;7171;50.936;6.764;2022-12-16T15:40:14;0.20;99.90
14182;DHT22;7171;50.936;6.764;2022-12-16T15:43:01;0.10;99.90
14182;DHT22;7171;50.936;6.764;2022-12-16T15:45:47;0.10;99.90
14182;DHT22;7171;50.936;6.764;2022-12-16T15:48:34;0.20;99.90
14182;DHT22;7171;50.936;6.764;2022-12-16T15:51:21;0.20;99.90
14182;DHT22;7171;50.936;6.764;2022-12-16T15:54:13;0.20;99.90
14182;DHT22;7171;50.936;6.764;2022-12-16T15:56:58;0.20;99.90
14182;DHT22;7171;50.936;6.764;2022-12-16T15:59:54;0.30;99.90
14182;DHT22;7171;50.936;6.764;2022-12-16T16:02:45;0.30;99.90
14182;DHT22;7171;50.936;6.764;2022-12-16T16:05:32;0.40;99.90
14182;DHT22;7171;50.936;6.764;2022-12-16T16:08:16;0.40;99.90
14182;DHT22;7171;50.936;6.764;2022-12-16T16:11:01;0.50;99.90
14182;DHT22;7171;50.936;6.764;2022-12-16T16:13:45;0.50;99.90
14182;DHT22;7171;50.936;6.764;2022-12-16T16:16:29;0.60;99.90
14182;DHT22;7171;50.936;6.764;2022-12-16T16:19:18;0.60;99.90
14182;DHT22;7171;50.936;6.764;2022-12-16T16:22:08;0.60;99.90
14182;DHT22;7171;50.936;6.764;2022-12-16T16:24:52;0.70;99.90
14182;DHT22;7171;50.936;6.764;2022-12-16T16:27:36;0.70;99.90
14182;DHT22;7171;50.936;6.764;2022-12-16T16:30:17;0.70;99.90
14182;DHT22;7171;50.936;6.764;2022-12-16T16:33:01;0.70;99.90
14182;DHT22;7171;50.936;6.764;2022-12-16T16:35:46;0.70;99.90
14182;DHT22;7171;50.936;6.764;2022-12-16T16:38:31;0.80;99.90
14182;DHT22;7171;50.936;6.764;2022-12-16T16:41:15;0.80;99.90
14182;DHT22;7171;50.936;6.764;2022-12-16T16:44:00;0.80;99.90
14182;DHT22;7171;50.936;6.764;2022-12-16T16:46:45;0.90;99.90
14182;DHT22;7171;50.936;6.764;2022-12-16T16:49:30;0.90;99.90
14182;DHT22;7171;50.936;6.764;2022-12-16T16:52:17;1.00;99.90
14182;DHT22;7171;50.936;6.764;2022-12-16T16:55:03;1.00;99.90
14182;DHT22;7171;50.936;6.764;2022-12-16T16:57:48;1.00;99.90
14182;DHT22;7171;50.936;6.764;2022-12-16T17:00:32;1.00;99.90
14182;DHT22;7171;50.936;6.764;2022-12-16T17:03:16;1.10;99.90
14182;DHT22;7171;50.936;6.764;2022-12-16T17:06:12;1.10;99.90
14182;DHT22;7171;50.936;6.764;2022-12-16T17:08:57;1.10;99.90
14182;DHT22;7171;50.936;6.764;2022-12-16T17:11:43;1.10;99.90
14182;DHT22;7171;50.936;6.764;2022-12-16T17:14:27;1.10;99.90
14182;DHT22;7171;50.936;6.764;2022-12-16T17:17:11;1.10;99.90
14182;DHT22;7171;50.936;6.764;2022-12-16T17:19:55;1.10;99.90
14182;DHT22;7171;50.936;6.764;2022-12-16T17:22:40;1.20;99.90
14182;DHT22;7171;50.936;6.764;2022-12-16T17:25:24;1.10;99.90
14182;DHT22;7171;50.936;6.764;2022-12-16T17:28:10;1.10;99.90
14182;DHT22;7171;50.936;6.764;2022-12-16T17:30:54;1.10;99.90
14182;DHT22;7171;50.936;6.764;2022-12-16T17:33:38;1.10;99.90
14182;DHT22;7171;50.936;6.764;2022-12-16T17:36:23;1.10;99.90
14182;DHT22;7171;50.936;6.764;2022-12-16T17:39:08;1.10;99.90
14182;DHT22;7171;50.936;6.764;2022-12-16T17:41:53;1.10;99.90
14182;DHT22;7171;50.936;6.764;2022-12-16T17:44:39;1.10;99.90